Time;durP1;ratioP1;P1;durP2;ratioP2;P2;SDS_P1;SDS_P2;PMS_P1;PMS_P2;Temp;Humidity;BMP_temperature;BMP_pressure;BME280_temperature;BME280_humidity;BME280_pressure;Samples;Min_cycle;Max_cycle;Signal;HPM_P1;HPM_P2
2022/04/10 00:02:24;;;;;;;5.57;3.43;;;;;;;6.42;nan;68263.69;5074318;28;20210;-54
2022/04/10 00:04:50;;;;;;;4.17;2.70;;;;;;;6.40;nan;68260.94;5074241;28;20285;-58
2022/04/10 00:07:15;;;;;;;5.27;3.33;;;;;;;6.37;nan;68257.53;5074328;28;20210;-58
2022/04/10 00:09:40;;;;;;;5.63;3.37;;;;;;;6.34;nan;68254.69;5074667;28;20211;-59
2022/04/10 00:12:06;;;;;;;3.37;2.67;;;;;;;6.31;nan;68250.56;5075254;28;20259;-59
2022/04/10 00:14:31;;;;;;;9.17;3.53;;;;;;;6.28;nan;68246.94;5077670;28;20242;-59
2022/04/10 00:16:57;;;;;;;4.80;2.97;;;;;;;6.24;nan;68242.38;5078015;28;20196;-59
2022/04/10 00:19:23;;;;;;;6.13;3.80;;;;;;;6.21;nan;68239.06;5077899;28;20188;-58
2022/04/10 00:21:48;;;;;;;7.50;4.70;;;;;;;6.17;nan;68235.31;5077652;28;20193;-60
2022/04/10 00:24:14;;;;;;;7.40;4.83;;;;;;;6.14;nan;68231.72;5077764;28;20184;-62
2022/04/10 00:26:39;;;;;;;3.93;2.87;;;;;;;6.10;nan;68226.78;5077785;28;20224;-58
2022/04/10 00:29:05;;;;;;;3.40;2.93;;;;;;;6.05;nan;68221.81;5077539;28;20189;-57
2022/04/10 00:31:30;;;;;;;4.87;3.20;;;;;;;6.01;nan;68217.53;5077758;28;20184;-56
2022/04/10 00:33:55;;;;;;;3.77;2.83;;;;;;;5.97;nan;68213.13;5077497;28;20217;-58
2022/04/10 00:36:21;;;;;;;6.83;2.97;;;;;;;5.93;nan;68208.28;5077369;28;20291;-57
2022/04/10 00:38:46;;;;;;;5.53;2.87;;;;;;;5.88;nan;68202.94;5077637;28;20172;-57
2022/04/10 00:41:12;;;;;;;5.67;3.90;;;;;;;5.83;nan;68197.25;5077235;28;20187;-61
2022/04/10 00:43:39;;;;;;;4.90;3.53;;;;;;;5.79;nan;68192.13;5095576;28;20192;-57
2022/04/10 00:46:05;;;;;;;3.70;2.83;;;;;;;5.74;nan;68186.44;5095193;28;20204;-58
2022/04/10 00:48:30;;;;;;;4.63;3.20;;;;;;;5.69;nan;68181.50;5077525;28;20189;-58
2022/04/10 00:53:41;;;;;;;3.77;3.03;;;;;;;5.61;nan;68172.66;5095405;28;20195;-58
2022/04/10 00:56:08;;;;;;;4.63;3.17;;;;;;;5.57;nan;68168.53;5077228;28;20188;-58
2022/04/10 00:58:34;;;;;;;7.63;3.50;;;;;;;5.52;nan;68163.13;5077558;28;20260;-66
2022/04/10 01:00:59;;;;;;;7.10;3.57;;;;;;;5.47;nan;68157.72;5076975;28;20216;-60
2022/04/10 01:03:25;;;;;;;4.93;3.13;;;;;;;5.43;nan;68153.06;5077193;28;20172;-62
2022/04/10 01:05:50;;;;;;;5.07;3.30;;;;;;;5.39;nan;68147.59;5077101;28;20195;-61
2022/04/10 01:08:15;;;;;;;5.03;3.00;;;;;;;5.34;nan;68142.66;5077165;28;20251;-62
2022/04/10 01:10:44;;;;;;;11.07;5.00;;;;;;;5.30;nan;68138.25;5077227;28;20364;-63
2022/04/10 01:13:10;;;;;;;5.33;4.00;;;;;;;5.26;nan;68133.84;5077244;28;20196;-63
2022/04/10 01:15:37;;;;;;;5.37;3.53;;;;;;;5.22;nan;68129.56;5077118;28;20181;-62
2022/04/10 01:18:03;;;;;;;4.93;3.27;;;;;;;5.19;nan;68126.25;5077107;28;20180;-62
2022/04/10 01:20:29;;;;;;;8.30;3.87;;;;;;;5.16;nan;68122.63;5076763;28;20179;-66
2022/04/10 01:22:55;;;;;;;5.23;3.40;;;;;;;5.13;nan;68119.31;5076073;28;20177;-66
2022/04/10 01:25:20;;;;;;;5.93;3.87;;;;;;;5.10;nan;68116.28;5076451;28;20257;-66
2022/04/10 01:27:46;;;;;;;6.60;3.87;;;;;;;5.08;nan;68113.59;5076751;28;20205;-66
2022/04/10 01:30:12;;;;;;;6.63;3.67;;;;;;;5.05;nan;68110.28;5076974;28;20184;-66
2022/04/10 01:32:38;;;;;;;6.33;3.53;;;;;;;5.02;nan;68106.66;5076541;28;20191;-66
2022/04/10 01:35:04;;;;;;;6.07;3.90;;;;;;;4.99;nan;68103.03;5077006;28;20274;-65
2022/04/10 01:37:31;;;;;;;5.47;3.73;;;;;;;4.95;nan;68098.38;5076717;28;20224;-62
2022/04/10 01:39:57;;;;;;;5.13;3.40;;;;;;;4.91;nan;68094.09;5076474;28;20184;-58
2022/04/10 01:42:22;;;;;;;5.50;3.63;;;;;;;4.88;nan;68090.63;5076590;28;20246;-59
2022/04/10 01:44:48;;;;;;;6.37;3.73;;;;;;;4.85;nan;68086.91;5076452;28;20191;-59
2022/04/10 01:47:14;;;;;;;5.53;3.13;;;;;;;4.82;nan;68083.81;5076373;28;20216;-58
2022/04/10 01:49:39;;;;;;;5.27;3.47;;;;;;;4.81;nan;68082.34;5076578;28;20249;-60
2022/04/10 01:52:05;;;;;;;5.37;3.63;;;;;;;4.79;nan;68080.06;5076573;28;20191;-58
2022/04/10 01:54:31;;;;;;;6.20;3.40;;;;;;;4.78;nan;68078.69;5076470;28;20283;-61
2022/04/10 01:56:56;;;;;;;5.30;3.57;;;;;;;4.76;nan;68076.88;5076116;28;20224;-66
2022/04/10 01:59:22;;;;;;;7.67;3.30;;;;;;;4.75;nan;68076.13;5076446;28;20210;-56
2022/04/10 02:01:48;;;;;;;3.40;3.10;;;;;;;4.75;nan;68075.28;5076243;28;20185;-58
2022/04/10 02:04:14;;;;;;;5.70;3.53;;;;;;;4.74;nan;68074.47;5094337;28;20278;-58
2022/04/10 02:06:39;;;;;;;6.10;3.40;;;;;;;4.74;nan;68074.03;5076297;28;20210;-58
2022/04/10 02:09:08;;;;;;;5.03;3.40;;;;;;;4.73;nan;68073.75;5076372;28;20183;-58
2022/04/10 02:11:34;;;;;;;4.67;3.03;;;;;;;4.73;nan;68073.63;5076458;28;20184;-59
2022/04/10 02:13:59;;;;;;;5.87;3.30;;;;;;;4.73;nan;68074.25;5076283;28;20251;-66
2022/04/10 02:16:25;;;;;;;4.40;3.50;;;;;;;4.74;nan;68074.47;5076127;28;20188;-59
2022/04/10 02:18:51;;;;;;;6.53;3.33;;;;;;;4.75;nan;68075.13;5076017;28;20180;-59
2022/04/10 02:21:16;;;;;;;5.17;3.40;;;;;;;4.76;nan;68076.72;5075835;28;20183;-59
2022/04/10 02:23:42;;;;;;;5.47;3.30;;;;;;;4.78;nan;68078.56;5075723;28;20190;-59
2022/04/10 02:26:10;;;;;;;4.93;3.10;;;;;;;4.79;nan;68079.56;5075576;28;20212;-58
2022/04/10 02:28:36;;;;;;;5.17;3.50;;;;;;;4.80;nan;68081.09;5075725;28;20291;-58
2022/04/10 02:31:01;;;;;;;4.10;3.33;;;;;;;4.82;nan;68083.09;5075938;28;20405;-58
2022/04/10 02:33:27;;;;;;;4.93;3.23;;;;;;;4.84;nan;68085.56;5075933;28;20187;-58
2022/04/10 02:35:52;;;;;;;5.47;3.50;;;;;;;4.86;nan;68086.88;5074810;28;20256;-58
2022/04/10 02:38:17;;;;;;;5.97;3.10;;;;;;;4.87;nan;68088.69;5093862;28;20243;-58
2022/04/10 02:40:44;;;;;;;5.33;3.57;;;;;;;4.90;nan;68091.72;5075861;28;20184;-59
2022/04/10 02:43:14;;;;;;;4.70;2.97;;;;;;;4.92;nan;68094.28;5075603;28;20196;-58
2022/04/10 02:45:42;;;;;;;5.37;3.57;;;;;;;4.93;nan;68095.72;5075558;28;20215;-58
2022/04/10 02:48:09;;;;;;;4.30;2.90;;;;;;;4.95;nan;68097.72;5075362;28;20211;-58
2022/04/10 02:50:34;;;;;;;5.80;3.10;;;;;;;4.97;nan;68099.81;5075304;28;20189;-59
2022/04/10 02:53:00;;;;;;;5.07;2.97;;;;;;;4.98;nan;68101.75;5075333;28;20188;-59
2022/04/10 02:55:25;;;;;;;2.90;2.43;;;;;;;5.00;nan;68103.84;5075395;28;20185;-60
2022/04/10 02:57:50;;;;;;;4.63;3.00;;;;;;;5.03;nan;68106.59;5075573;28;20188;-60
2022/04/10 03:00:16;;;;;;;4.47;2.67;;;;;;;5.05;nan;68108.78;5075136;28;20192;-60
2022/04/10 03:02:42;;;;;;;4.43;2.77;;;;;;;5.07;nan;68110.66;5075152;28;20191;-59
2022/04/10 03:05:08;;;;;;;5.43;2.80;;;;;;;5.10;nan;68114.38;5075331;28;20275;-60
2022/04/10 03:07:33;;;;;;;6.33;2.70;;;;;;;5.13;nan;68118.41;5075192;28;20200;-58
2022/04/10 03:09:59;;;;;;;5.50;2.60;;;;;;;5.17;nan;68122.34;5075158;28;20184;-67
2022/04/10 03:12:24;;;;;;;3.20;2.50;;;;;;;5.20;nan;68125.63;5075104;28;20238;-66
2022/04/10 03:14:49;;;;;;;3.70;2.40;;;;;;;5.22;nan;68127.81;5075181;28;20195;-66
2022/04/10 03:17:15;;;;;;;4.40;2.83;;;;;;;5.24;nan;68130.28;5075083;28;20192;-66
2022/04/10 03:19:40;;;;;;;2.97;2.67;;;;;;;5.25;nan;68132.13;5075370;28;20188;-66
2022/04/10 03:22:05;;;;;;;4.70;3.00;;;;;;;5.27;nan;68134.09;5075058;28;20184;-66
2022/04/10 03:24:31;;;;;;;4.67;2.53;;;;;;;5.28;nan;68135.66;5074884;28;20219;-65
2022/04/10 03:26:56;;;;;;;4.77;2.67;;;;;;;5.30;nan;68137.28;5074910;28;20216;-65
2022/04/10 03:29:22;;;;;;;3.83;2.93;;;;;;;5.31;nan;68138.38;5075157;28;20184;-67
2022/04/10 03:31:47;;;;;;;3.60;2.80;;;;;;;5.31;nan;68138.56;5074918;28;20273;-66
2022/04/10 03:34:13;;;;;;;3.43;2.40;;;;;;;5.30;nan;68137.34;5074828;28;20195;-66
2022/04/10 03:36:38;;;;;;;4.50;2.67;;;;;;;5.29;nan;68136.41;5075002;28;20268;-67
2022/04/10 03:39:04;;;;;;;4.67;2.93;;;;;;;5.28;nan;68135.53;5074877;28;20189;-66
2022/04/10 03:41:29;;;;;;;4.13;3.07;;;;;;;5.28;nan;68135.28;5074890;28;20188;-66
2022/04/10 03:43:54;;;;;;;3.00;2.70;;;;;;;5.28;nan;68135.19;5074885;28;20261;-66
2022/04/10 03:46:20;;;;;;;4.33;3.00;;;;;;;5.28;nan;68134.84;5074534;28;20216;-63
2022/04/10 03:48:45;;;;;;;6.07;3.30;;;;;;;5.27;nan;68133.75;5074922;28;20212;-66
2022/04/10 03:51:10;;;;;;;4.53;3.53;;;;;;;5.26;nan;68132.50;5074710;28;20215;-65
2022/04/10 03:53:36;;;;;;;6.33;3.20;;;;;;;5.25;nan;68131.91;5074437;28;20279;-66
2022/04/10 03:56:01;;;;;;;5.10;3.53;;;;;;;5.23;nan;68129.66;5074355;28;20187;-65
2022/04/10 03:58:27;;;;;;;5.57;3.73;;;;;;;5.23;nan;68129.38;5074648;28;20226;-66
2022/04/10 04:00:52;;;;;;;5.40;3.27;;;;;;;5.22;nan;68128.28;5074482;28;20192;-66
2022/04/10 04:03:18;;;;;;;4.03;3.40;;;;;;;5.21;nan;68127.00;5074632;28;20192;-66
2022/04/10 04:05:43;;;;;;;5.73;3.53;;;;;;;5.19;nan;68124.56;5074539;28;20219;-59
2022/04/10 04:08:08;;;;;;;5.53;3.60;;;;;;;5.18;nan;68123.03;5074486;28;20216;-60
2022/04/10 04:10:34;;;;;;;5.27;3.60;;;;;;;5.17;nan;68121.75;5074625;28;20195;-59
2022/04/10 04:13:00;;;;;;;5.97;3.40;;;;;;;5.16;nan;68121.16;5074397;28;20240;-58
2022/04/10 04:15:26;;;;;;;6.40;3.90;;;;;;;5.15;nan;68120.63;5074348;28;20190;-58
2022/04/10 04:17:51;;;;;;;4.33;3.30;;;;;;;5.14;nan;68119.81;5074379;28;20203;-58
2022/04/10 04:20:17;;;;;;;6.00;3.73;;;;;;;5.13;nan;68118.44;5074370;28;20181;-58
2022/04/10 04:22:42;;;;;;;4.67;3.60;;;;;;;5.11;nan;68116.72;5074131;28;20183;-59
2022/04/10 04:25:08;;;;;;;5.23;3.67;;;;;;;5.10;nan;68115.94;5074402;28;20215;-60
2022/04/10 04:27:33;;;;;;;6.43;3.37;;;;;;;5.09;nan;68114.84;5073927;28;20218;-59
2022/04/10 04:30:00;;;;;;;4.83;3.60;;;;;;;5.08;nan;68113.38;5073889;28;20191;-59
2022/04/10 04:32:26;;;;;;;5.10;3.70;;;;;;;5.07;nan;68112.19;5073682;28;20184;-60
2022/04/10 04:34:51;;;;;;;7.03;3.97;;;;;;;5.06;nan;68111.38;5073987;28;20203;-59
2022/04/10 04:37:16;;;;;;;7.27;3.63;;;;;;;5.05;nan;68110.28;5074103;28;20181;-59
2022/04/10 04:39:41;;;;;;;5.67;3.67;;;;;;;5.05;nan;68109.63;5074237;28;20238;-60
2022/04/10 04:42:07;;;;;;;7.00;4.40;;;;;;;5.03;nan;68107.75;5073976;28;20183;-63
2022/04/10 04:44:33;;;;;;;6.63;4.97;;;;;;;5.03;nan;68107.53;5074156;28;20191;-60
2022/04/10 04:46:58;;;;;;;4.37;3.63;;;;;;;5.04;nan;68109.25;5073665;28;20196;-62
2022/04/10 04:49:27;;;;;;;5.10;3.90;;;;;;;5.07;nan;68112.88;5091919;28;20181;-60
2022/04/10 04:51:53;;;;;;;5.37;3.80;;;;;;;5.12;nan;68118.16;5073749;28;20191;-60
2022/04/10 04:54:18;;;;;;;5.00;3.67;;;;;;;5.18;nan;68124.94;5073621;28;20686;-60
2022/04/10 04:56:43;;;;;;;5.17;3.47;;;;;;;5.25;nan;68133.19;5073790;28;20224;-60
2022/04/10 04:59:09;;;;;;;5.77;3.67;;;;;;;5.33;nan;68141.91;5076044;28;20212;-68
2022/04/10 05:01:35;;;;;;;5.57;3.70;;;;;;;5.43;nan;68151.84;5077178;28;20206;-58
2022/04/10 05:04:00;;;;;;;7.20;3.43;;;;;;;5.53;nan;68163.22;5077147;28;20188;-59
2022/04/10 05:06:26;;;;;;;4.53;3.70;;;;;;;5.63;nan;68174.13;5077026;28;20204;-59
2022/04/10 05:08:52;;;;;;;5.70;3.90;;;;;;;5.71;nan;68183.00;5077277;28;20230;-60
2022/04/10 05:11:17;;;;;;;4.80;3.80;;;;;;;5.81;nan;68194.31;5077119;28;20188;-58
2022/04/10 05:13:43;;;;;;;6.47;4.20;;;;;;;5.91;nan;68206.31;5077245;28;20279;-60
2022/04/10 05:16:09;;;;;;;5.93;4.00;;;;;;;6.03;nan;68219.34;5077310;28;20326;-60
2022/04/10 05:18:34;;;;;;;5.00;3.50;;;;;;;6.14;nan;68232.13;5077368;28;20249;-59
2022/04/10 05:21:00;;;;;;;9.37;6.10;;;;;;;6.25;nan;68244.41;5076873;28;20197;-62
2022/04/10 05:23:25;;;;;;;5.13;4.30;;;;;;;6.36;nan;68257.25;5076836;28;20181;-60
2022/04/10 05:25:52;;;;;;;5.10;3.50;;;;;;;6.48;nan;68269.66;5077096;28;20216;-60
2022/04/10 05:28:17;;;;;;;15.73;9.97;;;;;;;6.58;nan;68281.53;5094733;28;20297;-59
2022/04/10 05:30:44;;;;;;;5.33;4.70;;;;;;;6.66;nan;68290.81;5077060;28;20225;-61
2022/04/10 05:33:11;;;;;;;6.03;4.73;;;;;;;6.72;nan;68297.59;5076811;28;20187;-61
2022/04/10 05:35:36;;;;;;;6.63;4.30;;;;;;;6.77;nan;68302.44;5076815;28;20199;-59
2022/04/10 05:38:02;;;;;;;4.87;4.37;;;;;;;6.78;nan;68303.38;5076824;28;20267;-55
2022/04/10 05:40:28;;;;;;;5.17;4.33;;;;;;;6.79;nan;68305.31;5077157;28;20205;-58
2022/04/10 05:42:53;;;;;;;5.27;4.30;;;;;;;6.81;nan;68307.44;5076805;28;20174;-54
2022/04/10 05:45:18;;;;;;;5.40;4.20;;;;;;;6.83;nan;68309.19;5076602;28;20184;-52
2022/04/10 05:47:44;;;;;;;5.47;4.23;;;;;;;6.85;nan;68311.53;5076430;28;20196;-58
2022/04/10 05:50:10;;;;;;;6.40;4.40;;;;;;;6.88;nan;68314.56;5076497;28;20199;-57
2022/04/10 05:52:40;;;;;;;6.60;4.60;;;;;;;6.91;nan;68318.13;5076452;28;20181;-56
2022/04/10 05:55:07;;;;;;;6.10;3.90;;;;;;;6.94;nan;68321.88;5076304;28;20188;-60
2022/04/10 05:57:32;;;;;;;6.87;5.47;;;;;;;6.98;nan;68326.00;5076480;28;20187;-57
2022/04/10 05:59:58;;;;;;;5.33;4.20;;;;;;;7.01;nan;68328.75;5076197;28;20183;-58
2022/04/10 06:02:23;;;;;;;7.30;4.80;;;;;;;7.02;nan;68330.25;5076217;28;20190;-59
2022/04/10 06:04:48;;;;;;;6.43;4.60;;;;;;;7.04;nan;68332.00;5076224;28;20192;-57
2022/04/10 06:07:14;;;;;;;6.30;4.50;;;;;;;7.05;nan;68332.88;5076133;28;20209;-57
2022/04/10 06:09:39;;;;;;;6.30;4.60;;;;;;;7.06;nan;68334.09;5076149;28;20177;-58
2022/04/10 06:12:05;;;;;;;5.23;4.30;;;;;;;7.08;nan;68336.13;5076066;28;20208;-63
2022/04/10 06:14:30;;;;;;;8.63;4.50;;;;;;;7.08;nan;68336.31;5076199;28;20208;-59
2022/04/10 06:16:55;;;;;;;6.27;4.63;;;;;;;7.09;nan;68337.47;5076187;28;20200;-64
2022/04/10 06:19:21;;;;;;;5.37;4.47;;;;;;;7.11;nan;68339.50;5076057;28;20235;-63
2022/04/10 06:21:46;;;;;;;6.53;4.63;;;;;;;7.13;nan;68341.81;5076140;28;20200;-63
2022/04/10 06:24:11;;;;;;;6.67;4.73;;;;;;;7.16;nan;68344.66;5075921;28;20191;-64
2022/04/10 06:26:37;;;;;;;6.07;4.03;;;;;;;7.18;nan;68346.44;5076159;28;20213;-65
2022/04/10 06:29:03;;;;;;;7.57;4.67;;;;;;;7.19;nan;68347.38;5075498;28;20269;-64
2022/04/10 06:31:28;;;;;;;5.33;4.57;;;;;;;7.20;nan;68348.81;5075746;28;20283;-61
2022/04/10 06:33:56;;;;;;;5.23;4.60;;;;;;;7.22;nan;68350.84;5075593;28;20238;-60
2022/04/10 06:36:22;;;;;;;9.93;4.50;;;;;;;7.23;nan;68352.66;5075493;28;20227;-59
2022/04/10 06:38:49;;;;;;;6.93;4.67;;;;;;;7.23;nan;68353.19;5075944;28;20262;-60
2022/04/10 06:41:14;;;;;;;5.07;4.23;;;;;;;7.23;nan;68353.34;5075526;28;20184;-60
2022/04/10 06:43:39;;;;;;;7.70;5.67;;;;;;;7.23;nan;68353.69;5076053;28;20268;-59
2022/04/10 06:46:06;;;;;;;7.57;4.50;;;;;;;7.24;nan;68353.97;5075718;28;20188;-59
2022/04/10 06:48:32;;;;;;;6.53;4.77;;;;;;;7.24;nan;68354.66;5075509;28;20666;-59
2022/04/10 06:50:57;;;;;;;5.87;4.60;;;;;;;7.26;nan;68357.22;5075407;28;20223;-58
2022/04/10 06:53:22;;;;;;;8.77;4.90;;;;;;;7.30;nan;68361.50;5075316;28;20184;-59
2022/04/10 06:55:47;;;;;;;8.93;4.87;;;;;;;7.36;nan;68367.78;5075555;28;20201;-58
2022/04/10 06:58:13;;;;;;;6.67;4.63;;;;;;;7.50;nan;68383.63;5075220;28;20308;-60
2022/04/10 07:00:39;;;;;;;7.77;5.77;;;;;;;7.72;nan;68408.50;5075316;28;20183;-59
2022/04/10 07:03:04;;;;;;;6.03;4.67;;;;;;;7.91;nan;68430.66;5075483;28;20187;-59
2022/04/10 07:05:29;;;;;;;6.03;4.30;;;;;;;8.09;nan;68450.06;5075581;28;20190;-59
2022/04/10 07:07:55;;;;;;;5.53;4.47;;;;;;;8.22;nan;68464.75;5075041;28;20238;-61
2022/04/10 07:10:21;;;;;;;5.63;4.37;;;;;;;8.40;nan;68484.59;5075379;28;20180;-59
2022/04/10 07:12:46;;;;;;;7.70;4.53;;;;;;;8.57;nan;68503.81;5075134;28;20227;-59
2022/04/10 07:15:11;;;;;;;4.93;4.23;;;;;;;8.83;nan;68533.47;5075156;28;20199;-59
2022/04/10 07:17:37;;;;;;;6.53;4.80;;;;;;;9.04;nan;68556.56;5075202;28;20208;-58
2022/04/10 07:20:03;;;;;;;5.93;4.57;;;;;;;9.32;nan;68588.47;5075376;28;20275;-58
2022/04/10 07:25:12;;;;;;;5.87;5.00;;;;;;;9.75;nan;68636.88;5093163;28;20266;-61
2022/04/10 07:27:38;;;;;;;5.50;4.47;;;;;;;10.05;nan;68671.50;5075074;28;20240;-57
2022/04/10 07:30:04;;;;;;;6.80;4.83;;;;;;;10.33;nan;68703.16;5075062;28;20188;-59
2022/04/10 07:32:29;;;;;;;5.53;4.77;;;;;;;10.63;nan;68735.84;5074768;28;20212;-59
2022/04/10 07:34:54;;;;;;;18.13;13.13;;;;;;;10.94;nan;68770.47;5074631;28;20241;-59
2022/04/10 07:37:20;;;;;;;8.40;6.63;;;;;;;11.13;nan;68792.03;5074548;28;20251;-56
2022/04/10 07:39:45;;;;;;;6.07;5.47;;;;;;;11.24;nan;68804.19;5074785;28;20301;-59
2022/04/10 07:42:10;;;;;;;6.33;4.80;;;;;;;11.30;nan;68810.84;5074752;28;20193;-58
2022/04/10 07:44:36;;;;;;;6.37;5.00;;;;;;;11.33;nan;68814.78;5074649;28;20247;-59
2022/04/10 07:49:45;;;;;;;8.70;6.53;;;;;;;11.62;nan;68847.47;5092904;28;20253;-60
2022/04/10 07:52:10;;;;;;;6.90;6.10;;;;;;;11.68;nan;68854.28;5074659;28;20185;-62
2022/04/10 07:54:36;;;;;;;10.83;7.47;;;;;;;11.74;nan;68860.75;5074506;28;20196;-59
2022/04/10 07:57:03;;;;;;;6.50;5.50;;;;;;;12.00;nan;68889.59;5074427;28;20215;-59
2022/04/10 07:59:28;;;;;;;7.40;5.03;;;;;;;12.36;nan;68930.31;5074131;28;20221;-60
2022/04/10 08:01:53;;;;;;;6.53;5.60;;;;;;;12.71;nan;68970.19;5074300;28;20188;-60
2022/04/10 08:04:19;;;;;;;7.07;5.67;;;;;;;13.09;nan;69012.53;5074749;28;20184;-67
2022/04/10 08:06:44;;;;;;;6.27;4.80;;;;;;;13.33;nan;69040.81;5074319;28;20223;-59
2022/04/10 08:09:10;;;;;;;5.83;4.83;;;;;;;13.57;nan;69068.16;5074725;28;20219;-58
2022/04/10 08:11:35;;;;;;;9.43;5.60;;;;;;;13.71;nan;69083.81;5074336;28;20200;-59
2022/04/10 08:14:01;;;;;;;6.73;5.27;;;;;;;14.05;nan;69122.44;5074409;28;20192;-59
2022/04/10 08:16:26;;;;;;;7.63;6.80;;;;;;;14.55;nan;69179.53;5074318;28;20192;-59
2022/04/10 08:18:54;;;;;;;11.57;7.90;;;;;;;15.08;nan;69239.00;5074444;28;20219;-59
2022/04/10 08:21:20;;;;;;;6.07;4.77;;;;;;;15.60;nan;69298.41;5074208;28;20184;-60
2022/04/10 08:23:45;;;;;;;4.93;4.40;;;;;;;;;;5074677;28;20195;-59
2022/04/10 08:26:10;;;;;;;5.07;4.13;;;;;;;16.12;nan;69357.09;5074169;28;20196;-58
2022/04/10 08:28:35;;;;;;;5.60;4.60;;;;;;;16.22;nan;69368.09;5092119;28;20234;-59
2022/04/10 08:31:01;;;;;;;4.43;3.80;;;;;;;16.43;nan;69392.09;5074220;28;20176;-58
2022/04/10 08:33:26;;;;;;;4.90;3.77;;;;;;;16.53;nan;69403.66;5075408;28;20649;-58
2022/04/10 08:35:52;;;;;;;6.93;4.60;;;;;;;16.57;nan;69408.09;5077832;28;20200;-59
2022/04/10 08:38:17;;;;;;;3.87;3.47;;;;;;;16.69;nan;69420.94;5077410;28;20286;-59
2022/04/10 08:40:44;;;;;;;4.50;3.50;;;;;;;16.76;nan;69429.06;5077806;28;20180;-65
2022/04/10 08:43:10;;;;;;;6.27;4.43;;;;;;;16.71;nan;69423.78;5077585;28;20177;-69
2022/04/10 08:45:38;;;;;;;5.83;4.07;;;;;;;16.59;nan;69409.94;5077391;28;20308;-71
2022/04/10 08:48:04;;;;;;;5.63;4.23;;;;;;;16.43;nan;69392.00;5077340;28;20294;-67
2022/04/10 08:50:30;;;;;;;7.57;6.10;;;;;;;16.26;nan;69372.03;5077494;28;20177;-67
2022/04/10 08:52:57;;;;;;;4.97;4.30;;;;;;;16.02;nan;69344.88;5077411;28;20188;-66
2022/04/10 08:55:22;;;;;;;4.97;4.03;;;;;;;15.71;nan;69309.78;5077245;28;20326;-65
2022/04/10 08:57:50;;;;;;;4.97;3.80;;;;;;;15.35;nan;69267.84;5077518;28;20188;-59
2022/04/10 09:00:19;;;;;;;5.03;3.67;;;;;;;14.92;nan;69219.72;5077180;28;20176;-59
2022/04/10 09:02:52;;;;;;;4.03;3.63;;;;;;;14.52;nan;69175.09;5077016;28;20187;-65
2022/04/10 09:05:19;;;;;;;5.37;4.17;;;;;;;14.17;nan;69134.34;5077490;28;20227;-68
2022/04/10 09:08:08;;;;;;;6.37;4.03;;;;;;;14.07;nan;69122.28;5077194;28;20254;-65
2022/04/10 09:10:54;;;;;;;4.20;3.80;;;;;;;14.17;nan;69133.19;5077130;28;20192;-66
2022/04/10 09:13:39;;;;;;;6.23;4.03;;;;;;;14.35;nan;69154.19;5076960;28;20192;-65
2022/04/10 09:16:13;;;;;;;4.93;3.53;;;;;;;14.64;nan;69186.41;5077198;28;20277;-60
2022/04/10 09:18:54;;;;;;;5.10;3.30;;;;;;;14.94;nan;69221.88;5076837;28;20194;-56
2022/04/10 09:21:22;;;;;;;3.73;2.93;;;;;;;15.27;nan;69258.31;5076840;28;20269;-61
2022/04/10 09:24:09;;;;;;;4.53;3.37;;;;;;;15.57;nan;69292.78;5076980;28;20192;-61
2022/04/10 09:27:01;;;;;;;4.40;3.50;;;;;;;15.91;nan;69330.75;5094791;28;20212;-61
2022/04/10 09:29:26;;;;;;;3.73;3.40;;;;;;;16.18;nan;69362.06;5072203;28;20196;-61
2022/04/10 09:31:57;;;;;;;4.70;3.97;;;;;;;16.44;nan;69391.38;5076909;28;20207;-60
2022/04/10 09:34:25;;;;;;;4.87;3.00;;;;;;;16.72;nan;69423.09;5076905;28;20185;-59
2022/04/10 09:37:01;;;;;;;3.73;2.70;;;;;;;16.97;nan;69451.75;5076801;28;20189;-59
2022/04/10 09:39:37;;;;;;;4.20;2.67;;;;;;;17.06;nan;69462.50;5076655;28;20180;-63
2022/04/10 09:42:06;;;;;;;2.97;2.70;;;;;;;17.02;nan;69457.47;5076668;28;20192;-62
2022/04/10 09:44:33;;;;;;;4.10;3.00;;;;;;;16.91;nan;69445.91;5076182;28;20192;-63
2022/04/10 09:47:09;;;;;;;3.77;3.03;;;;;;;16.81;nan;69434.44;5076401;28;20208;-63
2022/04/10 09:49:39;;;;;;;5.33;3.83;;;;;;;16.79;nan;69431.50;5076549;28;20208;-59
2022/04/10 09:52:15;;;;;;;3.73;2.70;;;;;;;16.90;nan;69444.25;5076643;28;20185;-63
2022/04/10 09:54:42;;;;;;;3.43;2.50;;;;;;;16.89;nan;69443.50;5076606;28;20187;-60
2022/04/10 09:57:16;;;;;;;5.07;4.27;;;;;;;16.86;nan;69439.97;5076575;28;20224;-57
2022/04/10 09:59:46;;;;;;;4.10;2.87;;;;;;;16.76;nan;69429.31;5076215;28;20245;-57
2022/04/10 10:02:14;;;;;;;3.83;2.83;;;;;;;16.61;nan;69411.38;5076268;28;20289;-58
2022/04/10 10:04:40;;;;;;;4.87;2.77;;;;;;;16.53;nan;69402.34;5076413;28;20188;-58
2022/04/10 10:07:09;;;;;;;4.27;2.50;;;;;;;16.51;nan;69399.78;5094084;28;20214;-58
2022/04/10 10:09:35;;;;;;;3.90;2.90;;;;;;;16.63;nan;69412.91;5076021;28;20258;-58
2022/04/10 10:12:02;;;;;;;2.50;2.20;;;;;;;16.79;nan;69431.16;5075902;28;20364;-59
2022/04/10 10:14:33;;;;;;;3.97;3.00;;;;;;;16.98;nan;69453.41;5076043;28;20212;-55
2022/04/10 10:17:00;;;;;;;3.47;2.80;;;;;;;17.21;nan;69479.41;5075979;28;20211;-54
2022/04/10 10:19:28;;;;;;;5.23;2.70;;;;;;;17.35;nan;69496.41;5076225;28;20176;-54
2022/04/10 10:21:54;;;;;;;4.37;2.70;;;;;;;17.41;nan;69503.09;5076120;28;20267;-59
2022/04/10 10:24:22;;;;;;;4.17;2.60;;;;;;;17.44;nan;69505.59;5094141;28;20188;-60
2022/04/10 10:27:32;;;;;;;3.23;2.67;;;;;;;17.33;nan;69493.50;5076187;28;20227;-59
2022/04/10 10:30:03;;;;;;;6.57;4.13;;;;;;;17.16;nan;69474.91;5038766;28;20281;-59
2022/04/10 10:32:48;;;;;;;6.20;3.37;;;;;;;16.94;nan;69449.31;5075620;28;20193;-58
2022/04/10 10:35:29;;;;;;;4.50;3.00;;;;;;;16.70;nan;69422.38;5075814;28;20294;-60
2022/04/10 10:37:54;;;;;;;4.40;3.37;;;;;;;16.46;nan;69394.84;5092668;28;20188;-56
2022/04/10 10:40:21;;;;;;;3.40;3.10;;;;;;;16.21;nan;69366.97;5075591;28;20219;-59
2022/04/10 10:42:51;;;;;;;5.83;2.87;;;;;;;15.99;nan;69341.47;5075503;28;20189;-60
2022/04/10 10:45:33;;;;;;;4.77;2.53;;;;;;;15.89;nan;69330.38;5075413;28;20321;-59
2022/04/10 10:48:24;;;;;;;3.10;2.80;;;;;;;15.78;nan;69317.09;5075897;28;20206;-64
2022/04/10 10:50:50;;;;;;;3.13;2.60;;;;;;;15.80;nan;69319.06;5075165;28;20205;-59
2022/04/10 10:53:17;;;;;;;3.47;2.60;;;;;;;15.93;nan;69334.16;5075588;28;20191;-60
2022/04/10 10:55:44;;;;;;;4.33;2.87;;;;;;;16.14;nan;69358.03;5074221;28;20217;-61
2022/04/10 10:58:09;;;;;;;3.00;2.40;;;;;;;16.40;nan;69387.88;5075263;28;20195;-60
2022/04/10 11:00:38;;;;;;;4.13;2.93;;;;;;;16.52;nan;69402.03;5075407;28;20189;-61
2022/04/10 11:03:09;;;;;;;3.20;2.63;;;;;;;16.63;nan;69414.44;5075261;28;20192;-60
2022/04/10 11:05:39;;;;;;;3.27;2.30;;;;;;;16.65;nan;69416.00;5075160;28;20222;-59
2022/04/10 11:08:05;;;;;;;3.63;2.10;;;;;;;16.56;nan;69407.00;5075431;28;20226;-56
2022/04/10 11:10:34;;;;;;;3.27;2.40;;;;;;;16.44;nan;69392.75;5075093;28;20192;-57
2022/04/10 11:13:07;;;;;;;4.00;2.70;;;;;;;16.30;nan;69376.81;5075114;28;20184;-58
2022/04/10 11:15:54;;;;;;;2.90;2.30;;;;;;;;;;5093335;28;20188;-58
2022/04/10 11:18:23;;;;;;;4.10;2.70;;;;;;;15.97;nan;69339.84;5075232;28;20253;-58
2022/04/10 11:20:56;;;;;;;4.60;2.13;;;;;;;15.81;nan;69321.72;5074922;28;20197;-59
2022/04/10 11:23:28;;;;;;;2.83;2.53;;;;;;;15.68;nan;69307.06;5091866;28;20219;-58
2022/04/10 11:25:53;;;;;;;2.57;2.20;;;;;;;15.57;nan;69294.22;5091981;28;20216;-60
2022/04/10 11:28:19;;;;;;;4.47;2.33;;;;;;;15.52;nan;69288.50;5075176;28;20297;-64
2022/04/10 11:30:45;;;;;;;5.90;2.67;;;;;;;15.45;nan;69280.56;5075379;28;20187;-68
2022/04/10 11:33:12;;;;;;;3.43;2.40;;;;;;;15.35;nan;69269.72;5074857;28;20224;-66
2022/04/10 11:35:41;;;;;;;4.90;2.80;;;;;;;15.25;nan;69258.41;5074745;28;20192;-68
2022/04/10 11:38:07;;;;;;;5.60;2.70;;;;;;;15.11;nan;69241.38;5074344;28;20218;-65
2022/04/10 11:40:35;;;;;;;3.90;2.80;;;;;;;14.89;nan;69217.38;5074704;28;20233;-64
2022/04/10 11:43:02;;;;;;;4.30;2.93;;;;;;;14.66;nan;69191.22;5074663;28;20186;-59
2022/04/10 11:45:31;;;;;;;3.50;3.20;;;;;;;14.42;nan;69163.69;5074941;28;20189;-62
2022/04/10 11:47:57;;;;;;;4.80;3.50;;;;;;;14.15;nan;69134.38;5074611;28;20208;-57
2022/04/10 11:50:25;;;;;;;5.20;3.80;;;;;;;13.90;nan;69105.78;5074803;28;20227;-56
2022/04/10 11:53:08;;;;;;;4.30;3.60;;;;;;;13.69;nan;69081.97;5074295;28;20180;-53
2022/04/10 11:55:39;;;;;;;4.80;3.80;;;;;;;13.51;nan;69061.13;5074698;28;20196;-57
2022/04/10 11:58:25;;;;;;;4.93;3.43;;;;;;;13.29;nan;69036.59;5074260;28;20199;-58
2022/04/10 12:00:52;;;;;;;7.17;5.60;;;;;;;13.07;nan;69011.66;5074640;28;20223;-58
2022/04/10 12:03:20;;;;;;;6.30;3.57;;;;;;;12.88;nan;68989.97;5074431;28;20191;-62
2022/04/10 12:05:46;;;;;;;4.70;3.97;;;;;;;12.75;nan;68974.66;5074609;28;20188;-62